Terminal Aerodrome Forecast
Issued by NWS

Home | Current Version | Previous Version | Text Only | Print | Product List | Glossary On
Versions: 1 2 3 4 5 6 7 8 9 10 11 12 13 14 15 16 17 18 19 20 21 22 23 24 25 26 27 28 29 30
000
FTUS42 KRAH 222346 CCA
TAFINT
TAF COR
KINT 222346Z 2300/2324 VRB02KT P6SM SCT050
     FM230100 VRB02KT P6SM BKN045
      TEMPO 2306/2310 5SM BR BKN010
     FM231000 11007KT 6SM BR OVC010
     FM231400 12010G18KT P6SM VCSH OVC025 PROB30 2318/2324
      13012G22KT 2SM SHRA BR OVC025=

USA.gov is the U.S. government's official web portal to all federal, state and local government web resources and services.